createdAt,value
2022-09-23T00:01:34.521Z,100.00
2022-09-23T00:04:03.129Z,100.00
2022-09-23T00:06:31.599Z,100.00
2022-09-23T00:09:00.105Z,100.00
2022-09-23T00:11:30.076Z,100.00
2022-09-23T00:14:00.887Z,100.00
2022-09-23T00:16:33.601Z,100.00
2022-09-23T00:19:05.913Z,100.00
2022-09-23T00:21:34.940Z,100.00
2022-09-23T00:24:03.635Z,100.00
2022-09-23T00:26:32.185Z,100.00
2022-09-23T00:29:00.845Z,100.00
2022-09-23T00:31:29.878Z,100.00
2022-09-23T00:34:01.997Z,100.00
2022-09-23T00:36:33.308Z,100.00
2022-09-23T00:39:04.159Z,100.00
2022-09-23T00:41:33.893Z,100.00
2022-09-23T00:44:03.121Z,100.00
2022-09-23T00:46:41.252Z,100.00
2022-09-23T00:49:16.945Z,100.00
2022-09-23T00:51:55.673Z,100.00
2022-09-23T00:54:28.473Z,100.00
2022-09-23T00:56:58.951Z,100.00
2022-09-23T00:59:30.105Z,100.00
2022-09-23T01:02:00.781Z,100.00
2022-09-23T01:04:31.249Z,100.00
2022-09-23T01:07:00.979Z,100.00
2022-09-23T01:09:30.007Z,100.00
2022-09-23T01:12:11.212Z,100.00
2022-09-23T01:14:48.533Z,100.00
2022-09-23T01:17:22.550Z,100.00
2022-09-23T01:20:05.796Z,100.00
2022-09-23T01:23:00.389Z,100.00
2022-09-23T01:25:55.139Z,100.00
2022-09-23T01:29:05.384Z,100.00
2022-09-23T01:31:45.008Z,100.00
2022-09-23T01:34:38.082Z,100.00
2022-09-23T01:37:30.516Z,100.00
2022-09-23T01:40:08.302Z,100.00
2022-09-23T01:43:11.503Z,100.00
2022-09-23T01:45:54.393Z,100.00
2022-09-23T01:48:29.814Z,100.00
2022-09-23T01:51:22.488Z,100.00
2022-09-23T01:54:12.058Z,100.00
2022-09-23T01:57:05.890Z,100.00
2022-09-23T01:59:41.609Z,100.00
2022-09-23T02:02:20.351Z,100.00
2022-09-23T02:05:12.117Z,100.00
2022-09-23T02:07:53.231Z,100.00
2022-09-23T02:10:29.030Z,100.00
2022-09-23T02:13:06.499Z,100.00
2022-09-23T02:15:42.974Z,100.00
2022-09-23T02:18:18.359Z,100.00
2022-09-23T02:20:48.767Z,100.00
2022-09-23T02:23:28.469Z,100.00
2022-09-23T02:26:22.844Z,100.00
2022-09-23T02:29:24.681Z,100.00
2022-09-23T02:32:16.331Z,100.00
2022-09-23T02:34:54.829Z,100.00
2022-09-23T02:37:26.149Z,100.00
2022-09-23T02:40:13.916Z,100.00
2022-09-23T02:43:16.160Z,100.00
2022-09-23T02:45:45.057Z,100.00
2022-09-23T02:48:30.858Z,100.00
2022-09-23T02:51:03.313Z,100.00
2022-09-23T02:53:36.153Z,100.00
2022-09-23T02:56:20.607Z,100.00
2022-09-23T02:58:50.985Z,100.00
2022-09-23T03:01:53.976Z,100.00
2022-09-23T03:04:48.367Z,100.00
2022-09-23T03:07:19.558Z,100.00
2022-09-23T03:09:50.724Z,100.00
2022-09-23T03:12:50.454Z,100.00
2022-09-23T03:15:32.562Z,100.00
2022-09-23T03:18:10.020Z,100.00
2022-09-23T03:20:52.133Z,100.00
2022-09-23T03:23:27.510Z,100.00
2022-09-23T03:26:01.040Z,100.00
2022-09-23T03:28:31.163Z,100.00
2022-09-23T03:31:03.447Z,100.00
2022-09-23T03:33:33.415Z,100.00
2022-09-23T03:36:28.388Z,100.00
2022-09-23T03:39:05.899Z,100.00
2022-09-23T03:41:46.322Z,100.00
2022-09-23T03:44:15.939Z,100.00
2022-09-23T03:46:50.662Z,100.00
2022-09-23T03:49:28.689Z,100.00
2022-09-23T03:51:57.856Z,100.00
2022-09-23T03:54:26.927Z,100.00
2022-09-23T03:56:58.727Z,100.00
2022-09-23T03:59:27.863Z,99.94
2022-09-23T04:01:56.674Z,100.00
2022-09-23T04:04:25.194Z,100.00
2022-09-23T04:06:59.463Z,100.00
2022-09-23T04:09:28.113Z,100.00
2022-09-23T04:11:56.673Z,100.00
2022-09-23T04:14:25.406Z,100.00
2022-09-23T04:16:54.113Z,99.93
2022-09-23T04:19:22.674Z,99.98
2022-09-23T04:21:51.633Z,100.00
2022-09-23T04:24:20.315Z,100.00
2022-09-23T04:26:53.061Z,99.98
2022-09-23T04:29:22.396Z,100.00
2022-09-23T04:31:51.225Z,100.00
2022-09-23T04:34:20.396Z,100.00
2022-09-23T04:36:50.721Z,99.77
2022-09-23T04:39:19.653Z,100.00
2022-09-23T04:41:48.633Z,100.00
2022-09-23T04:44:18.152Z,100.00
2022-09-23T04:46:50.429Z,100.00
2022-09-23T04:49:19.560Z,100.00
2022-09-23T04:51:48.820Z,100.00
2022-09-23T04:54:17.302Z,100.00
2022-09-23T04:56:45.907Z,100.00
2022-09-23T04:59:14.439Z,100.00
2022-09-23T05:01:43.049Z,100.00
2022-09-23T05:04:14.941Z,100.00
2022-09-23T05:06:46.079Z,100.00
2022-09-23T05:09:18.324Z,100.00
2022-09-23T05:11:47.249Z,100.00
2022-09-23T05:14:15.945Z,100.00
2022-09-23T05:16:44.501Z,100.00
2022-09-23T05:19:14.507Z,100.00
2022-09-23T05:21:43.208Z,100.00
2022-09-23T05:24:14.244Z,100.00
2022-09-23T05:26:42.857Z,100.00
2022-09-23T05:29:11.454Z,100.00
2022-09-23T05:31:40.083Z,100.00
2022-09-23T05:34:08.796Z,100.00
2022-09-23T05:36:39.248Z,100.00
2022-09-23T05:39:09.242Z,100.00
2022-09-23T05:41:38.210Z,100.00
2022-09-23T05:44:06.786Z,100.00
2022-09-23T05:46:36.221Z,100.00
2022-09-23T05:49:06.495Z,100.00
2022-09-23T05:51:36.858Z,100.00
2022-09-23T05:54:06.711Z,100.00
2022-09-23T05:56:36.507Z,99.91
2022-09-23T05:59:06.585Z,99.46
2022-09-23T06:01:37.711Z,98.24
2022-09-23T06:04:09.228Z,98.42
2022-09-23T06:06:43.191Z,97.79
2022-09-23T06:09:14.999Z,98.45
2022-09-23T06:11:43.869Z,98.44
2022-09-23T06:14:16.028Z,98.66
2022-09-23T06:16:44.556Z,97.88
2022-09-23T06:19:13.042Z,97.50
2022-09-23T06:21:42.569Z,97.95
2022-09-23T06:24:15.482Z,98.62
2022-09-23T06:26:45.977Z,97.35
2022-09-23T06:29:15.569Z,96.90
2022-09-23T06:31:44.419Z,97.23
2022-09-23T06:34:14.795Z,97.16
2022-09-23T06:36:46.108Z,97.01
2022-09-23T06:39:18.312Z,96.95
2022-09-23T06:41:46.924Z,96.91
2022-09-23T06:44:16.068Z,96.46
2022-09-23T06:46:45.144Z,95.78
2022-09-23T06:49:14.313Z,94.59
2022-09-23T06:51:42.814Z,94.24
2022-09-23T06:54:14.798Z,93.52
2022-09-23T06:56:46.160Z,93.41
2022-09-23T06:59:17.963Z,92.68
2022-09-23T07:01:48.672Z,93.23
2022-09-23T07:04:17.350Z,92.22
2022-09-23T07:06:45.887Z,92.87
2022-09-23T07:09:14.422Z,92.24
2022-09-23T07:11:43.051Z,91.26
2022-09-23T07:14:11.542Z,91.19
2022-09-23T07:16:40.058Z,91.82
2022-09-23T07:19:08.541Z,91.17
2022-09-23T07:21:37.862Z,90.72
2022-09-23T07:24:06.682Z,91.31
2022-09-23T07:26:35.721Z,91.11
2022-09-23T07:29:07.790Z,91.38
2022-09-23T07:31:39.625Z,89.50
2022-09-23T07:34:12.544Z,91.18
2022-09-23T07:36:41.888Z,91.99
2022-09-23T07:39:14.179Z,91.24
2022-09-23T07:41:45.346Z,90.46
2022-09-23T07:44:13.924Z,90.99
2022-09-23T07:46:42.648Z,89.55
2022-09-23T07:49:11.854Z,89.81
2022-09-23T07:51:42.192Z,89.38
2022-09-23T07:54:14.916Z,88.96
2022-09-23T07:56:44.992Z,89.48
2022-09-23T07:59:19.294Z,90.31
2022-09-23T08:01:51.281Z,88.80
2022-09-23T08:04:30.260Z,87.77
2022-09-23T08:07:02.217Z,89.20
2022-09-23T08:09:34.797Z,89.35
2022-09-23T08:12:03.538Z,87.22
2022-09-23T08:14:32.300Z,88.53
2022-09-23T08:17:00.856Z,88.00
2022-09-23T08:19:29.407Z,88.81
2022-09-23T08:21:58.736Z,88.66
2022-09-23T08:24:27.926Z,92.57
2022-09-23T08:26:56.466Z,88.93
2022-09-23T08:29:26.635Z,91.79
2022-09-23T08:31:55.426Z,91.01
2022-09-23T08:34:25.156Z,90.79
2022-09-23T08:36:53.720Z,90.84
2022-09-23T08:39:23.836Z,91.76
2022-09-23T08:41:58.859Z,91.81
2022-09-23T08:44:43.857Z,91.12
2022-09-23T08:47:39.668Z,92.23
2022-09-23T08:50:10.638Z,93.29
2022-09-23T08:52:53.099Z,93.23
2022-09-23T08:55:25.503Z,92.74
2022-09-23T08:58:26.494Z,92.74
2022-09-23T09:01:09.141Z,92.67
2022-09-23T09:03:46.073Z,93.50
2022-09-23T09:06:20.311Z,94.00
2022-09-23T09:08:58.870Z,94.04
2022-09-23T09:11:37.041Z,94.27
2022-09-23T09:14:24.160Z,94.73
2022-09-23T09:17:03.483Z,95.42
2022-09-23T09:19:55.268Z,95.73
2022-09-23T09:22:43.112Z,95.35
2022-09-23T09:25:44.870Z,95.17
2022-09-23T09:28:35.004Z,93.57
2022-09-23T09:31:16.148Z,94.12
2022-09-23T09:34:13.051Z,93.55
2022-09-23T09:36:51.876Z,94.37
2022-09-23T09:39:25.437Z,94.30
2022-09-23T09:42:01.220Z,94.10
2022-09-23T09:44:41.963Z,92.37
2022-09-23T09:47:29.595Z,91.45
2022-09-23T09:50:01.782Z,91.20
2022-09-23T09:52:30.870Z,90.34
2022-09-23T09:55:25.448Z,90.04
2022-09-23T09:58:05.265Z,90.47
2022-09-23T10:00:43.770Z,90.82
2022-09-23T10:03:15.198Z,91.01
2022-09-23T10:05:46.753Z,92.19
2022-09-23T10:08:29.606Z,92.75
2022-09-23T10:11:02.610Z,92.38
2022-09-23T10:13:32.178Z,92.19
2022-09-23T10:16:04.850Z,91.84
2022-09-23T10:18:39.154Z,91.94
2022-09-23T10:21:15.352Z,92.66
2022-09-23T10:23:53.599Z,92.78
2022-09-23T10:26:34.314Z,92.86
2022-09-23T10:29:05.649Z,93.42
2022-09-23T10:31:37.098Z,93.17
2022-09-23T10:34:22.238Z,94.00
2022-09-23T10:37:20.102Z,94.46
2022-09-23T10:40:06.801Z,93.89
2022-09-23T10:43:35.866Z,94.32
2022-09-23T10:46:27.821Z,93.76
2022-09-23T10:49:11.978Z,94.36
2022-09-23T10:52:04.841Z,94.24
2022-09-23T10:55:11.566Z,94.09
2022-09-23T10:57:47.604Z,94.67
2022-09-23T11:00:52.881Z,94.88
2022-09-23T11:03:57.728Z,95.52
2022-09-23T11:07:02.728Z,95.21
2022-09-23T11:09:41.592Z,95.46
2022-09-23T11:12:17.741Z,96.16
2022-09-23T11:14:58.069Z,96.31
2022-09-23T11:17:55.201Z,97.71
2022-09-23T11:20:45.263Z,97.16
2022-09-23T11:23:38.219Z,96.70
2022-09-23T11:26:27.909Z,96.57
2022-09-23T11:29:37.507Z,97.44
2022-09-23T11:32:28.640Z,97.97
2022-09-23T11:35:25.832Z,97.72
2022-09-23T11:38:13.077Z,97.36
2022-09-23T11:40:46.867Z,97.98
2022-09-23T11:43:25.443Z,97.90
2022-09-23T11:46:15.223Z,98.25
2022-09-23T11:48:47.255Z,98.47
2022-09-23T11:51:30.085Z,98.25
2022-09-23T11:54:20.616Z,98.03
2022-09-23T11:56:58.143Z,98.35
2022-09-23T11:59:52.224Z,98.50
2022-09-23T12:02:29.620Z,98.94
2022-09-23T12:05:30.220Z,99.23
2022-09-23T12:08:13.948Z,99.13
2022-09-23T12:10:55.292Z,99.64
2022-09-23T12:14:01.823Z,99.78
2022-09-23T12:16:33.165Z,99.66
2022-09-23T12:19:29.195Z,99.81
2022-09-23T12:22:10.859Z,100.00
2022-09-23T12:24:58.074Z,100.00
2022-09-23T12:27:29.642Z,100.00
2022-09-23T12:30:07.157Z,100.00
2022-09-23T12:32:35.711Z,100.00
2022-09-23T12:35:04.592Z,100.00
2022-09-23T12:37:39.913Z,100.00
2022-09-23T12:40:23.742Z,100.00
2022-09-23T12:42:53.165Z,100.00
2022-09-23T12:45:32.956Z,100.00
2022-09-23T12:48:21.976Z,100.00
2022-09-23T12:50:54.483Z,100.00
2022-09-23T12:53:35.112Z,100.00
2022-09-23T12:56:17.267Z,100.00
2022-09-23T12:58:45.836Z,100.00
2022-09-23T13:01:18.215Z,100.00
2022-09-23T13:04:12.150Z,100.00
2022-09-23T13:07:06.839Z,100.00
2022-09-23T13:09:50.095Z,100.00
2022-09-23T13:12:36.248Z,100.00
2022-09-23T13:15:16.502Z,100.00
2022-09-23T13:17:45.275Z,100.00
2022-09-23T13:20:22.524Z,100.00
2022-09-23T13:22:50.986Z,100.00
2022-09-23T13:25:29.121Z,100.00
2022-09-23T13:28:01.865Z,100.00
2022-09-23T13:30:30.778Z,100.00
2022-09-23T13:33:13.814Z,100.00
2022-09-23T13:35:53.770Z,100.00
2022-09-23T13:38:27.029Z,100.00
2022-09-23T13:40:59.553Z,100.00
2022-09-23T13:43:41.328Z,100.00
2022-09-23T13:46:22.801Z,100.00
2022-09-23T13:48:57.708Z,100.00
2022-09-23T13:51:31.319Z,100.00
2022-09-23T13:54:01.857Z,100.00
2022-09-23T13:56:33.286Z,100.00
2022-09-23T13:59:26.907Z,100.00
2022-09-23T14:02:15.175Z,100.00
2022-09-23T14:04:44.135Z,100.00
2022-09-23T14:07:19.978Z,100.00
2022-09-23T14:09:51.532Z,100.00
2022-09-23T14:12:23.396Z,100.00
2022-09-23T14:14:53.959Z,100.00
2022-09-23T14:17:24.540Z,100.00
2022-09-23T14:19:53.209Z,100.00
2022-09-23T14:22:29.927Z,100.00
2022-09-23T14:24:59.588Z,100.00
2022-09-23T14:27:34.817Z,100.00
2022-09-23T14:30:05.320Z,100.00
2022-09-23T14:32:34.482Z,100.00
2022-09-23T14:35:06.076Z,100.00
2022-09-23T14:37:59.117Z,100.00
2022-09-23T14:40:33.451Z,100.00
2022-09-23T14:43:17.066Z,100.00
2022-09-23T14:45:48.879Z,100.00
2022-09-23T14:48:37.126Z,100.00
2022-09-23T14:51:14.463Z,100.00
2022-09-23T14:53:47.468Z,100.00
2022-09-23T14:56:19.091Z,100.00
2022-09-23T14:59:01.713Z,100.00
2022-09-23T15:01:33.293Z,100.00
2022-09-23T15:04:16.103Z,100.00
2022-09-23T15:06:59.139Z,100.00
2022-09-23T15:09:40.452Z,100.00
2022-09-23T15:12:19.900Z,100.00
2022-09-23T15:14:54.027Z,100.00
2022-09-23T15:17:25.121Z,100.00
2022-09-23T15:20:00.723Z,100.00
2022-09-23T15:22:29.655Z,100.00
2022-09-23T15:25:31.674Z,100.00
2022-09-23T15:28:11.825Z,100.00
2022-09-23T15:30:41.181Z,100.00
2022-09-23T15:33:13.580Z,100.00
2022-09-23T15:35:48.312Z,100.00
2022-09-23T15:38:18.589Z,100.00
2022-09-23T15:40:47.175Z,100.00
2022-09-23T15:43:21.493Z,100.00
2022-09-23T15:46:01.292Z,100.00
2022-09-23T15:48:37.133Z,100.00
2022-09-23T15:51:09.101Z,100.00
2022-09-23T15:53:40.561Z,100.00
2022-09-23T15:56:09.180Z,100.00
2022-09-23T15:58:37.792Z,100.00
2022-09-23T16:01:07.258Z,100.00
2022-09-23T16:03:35.881Z,100.00
2022-09-23T16:06:05.212Z,100.00
2022-09-23T16:08:33.989Z,100.00
2022-09-23T16:11:02.565Z,100.00
2022-09-23T16:13:31.081Z,100.00
2022-09-23T16:15:59.650Z,100.00
2022-09-23T16:18:28.241Z,100.00
2022-09-23T16:20:56.889Z,100.00
2022-09-23T16:23:39.737Z,100.00
2022-09-23T16:26:09.684Z,100.00
2022-09-23T16:28:38.128Z,100.00
2022-09-23T16:31:06.923Z,100.00
2022-09-23T16:33:35.747Z,100.00
2022-09-23T16:36:04.506Z,100.00
2022-09-23T16:38:33.597Z,100.00
2022-09-23T16:41:02.163Z,100.00
2022-09-23T16:43:40.285Z,100.00
2022-09-23T16:46:13.177Z,100.00
2022-09-23T16:48:42.106Z,100.00
2022-09-23T16:51:16.465Z,100.00
2022-09-23T16:53:45.259Z,100.00
2022-09-23T16:56:14.182Z,100.00
2022-09-23T16:58:42.753Z,100.00
2022-09-23T17:01:43.029Z,100.00
2022-09-23T17:04:12.448Z,100.00
2022-09-23T17:06:51.082Z,100.00
2022-09-23T17:09:21.565Z,100.00
2022-09-23T17:11:59.808Z,100.00
2022-09-23T17:14:32.631Z,100.00
2022-09-23T17:17:01.174Z,100.00
2022-09-23T17:19:29.747Z,100.00
2022-09-23T17:21:58.205Z,100.00
2022-09-23T17:24:26.755Z,100.00
2022-09-23T17:26:55.225Z,100.00
2022-09-23T17:29:23.895Z,100.00
2022-09-23T17:31:52.462Z,100.00
2022-09-23T17:34:21.144Z,100.00
2022-09-23T17:36:49.677Z,100.00
2022-09-23T17:39:18.986Z,100.00
2022-09-23T17:41:47.535Z,100.00
2022-09-23T17:44:17.205Z,100.00
2022-09-23T17:46:45.703Z,100.00
2022-09-23T17:49:14.191Z,100.00
2022-09-23T17:51:43.257Z,100.00
2022-09-23T17:54:12.138Z,100.00
2022-09-23T17:56:40.618Z,100.00
2022-09-23T17:59:13.677Z,100.00
2022-09-23T18:01:42.263Z,100.00
2022-09-23T18:04:10.814Z,100.00
2022-09-23T18:06:39.636Z,100.00
2022-09-23T18:09:09.736Z,100.00
2022-09-23T18:11:40.658Z,100.00
2022-09-23T18:14:29.966Z,100.00
2022-09-23T18:16:58.594Z,100.00
2022-09-23T18:19:27.127Z,100.00
2022-09-23T18:21:58.317Z,100.00
2022-09-23T18:24:34.196Z,100.00
2022-09-23T18:27:03.345Z,100.00
2022-09-23T18:29:32.656Z,100.00
2022-09-23T18:32:01.276Z,100.00
2022-09-23T18:34:29.862Z,100.00
2022-09-23T18:36:58.477Z,100.00
2022-09-23T18:39:27.006Z,100.00
2022-09-23T18:41:55.856Z,100.00
2022-09-23T18:44:24.698Z,100.00
2022-09-23T18:46:53.165Z,100.00
2022-09-23T18:49:39.921Z,100.00
2022-09-23T18:52:08.370Z,100.00
2022-09-23T18:54:36.938Z,100.00
2022-09-23T18:57:06.250Z,100.00
2022-09-23T18:59:34.711Z,100.00
2022-09-23T19:02:03.387Z,100.00
2022-09-23T19:04:31.950Z,100.00
2022-09-23T19:07:00.570Z,100.00
2022-09-23T19:09:29.049Z,100.00
2022-09-23T19:11:58.460Z,100.00
2022-09-23T19:14:27.531Z,100.00
2022-09-23T19:16:56.083Z,100.00
2022-09-23T19:19:25.249Z,100.00
2022-09-23T19:21:53.789Z,100.00
2022-09-23T19:24:22.367Z,100.00
2022-09-23T19:26:51.433Z,100.00
2022-09-23T19:29:22.969Z,100.00
2022-09-23T19:31:52.036Z,100.00
2022-09-23T19:34:25.757Z,100.00
2022-09-23T19:36:58.383Z,100.00
2022-09-23T19:39:29.432Z,100.00
2022-09-23T19:41:57.906Z,100.00
2022-09-23T19:44:29.355Z,100.00
2022-09-23T19:46:57.973Z,100.00
2022-09-23T19:49:26.950Z,100.00
2022-09-23T19:51:56.617Z,100.00
2022-09-23T19:54:27.906Z,100.00
2022-09-23T19:56:56.722Z,100.00
2022-09-23T19:59:27.322Z,100.00
2022-09-23T20:01:55.932Z,100.00
2022-09-23T20:04:24.537Z,100.00
2022-09-23T20:06:53.065Z,100.00
2022-09-23T20:09:21.792Z,100.00
2022-09-23T20:11:50.772Z,100.00
2022-09-23T20:14:20.513Z,100.00
2022-09-23T20:16:49.401Z,100.00
2022-09-23T20:19:17.883Z,100.00
2022-09-23T20:22:06.413Z,100.00
2022-09-23T20:24:34.776Z,100.00
2022-09-23T20:27:12.280Z,100.00
2022-09-23T20:29:40.879Z,100.00
2022-09-23T20:32:10.314Z,100.00
2022-09-23T20:34:39.213Z,100.00
2022-09-23T20:37:07.857Z,100.00
2022-09-23T20:39:36.543Z,100.00
2022-09-23T20:42:05.414Z,100.00
2022-09-23T20:44:34.852Z,100.00
2022-09-23T20:47:03.563Z,100.00
2022-09-23T20:49:35.056Z,100.00
2022-09-23T20:52:07.360Z,100.00
2022-09-23T20:54:35.871Z,100.00
2022-09-23T20:57:04.400Z,100.00
2022-09-23T20:59:33.150Z,100.00
2022-09-23T21:02:02.194Z,100.00
2022-09-23T21:04:31.529Z,100.00
2022-09-23T21:07:00.460Z,100.00
2022-09-23T21:09:32.139Z,100.00
2022-09-23T21:12:00.619Z,100.00
2022-09-23T21:14:29.120Z,100.00
2022-09-23T21:16:58.319Z,100.00
2022-09-23T21:19:28.879Z,100.00
2022-09-23T21:21:57.419Z,100.00
2022-09-23T21:24:53.523Z,100.00
2022-09-23T21:27:14.372Z,100.00
2022-09-23T21:29:42.842Z,100.00
2022-09-23T21:32:11.499Z,100.00
2022-09-23T21:34:40.005Z,100.00
2022-09-23T21:37:09.374Z,100.00
2022-09-23T21:39:37.883Z,100.00
2022-09-23T21:42:07.152Z,100.00
2022-09-23T21:44:36.122Z,100.00
2022-09-23T21:47:04.662Z,100.00
2022-09-23T21:49:33.310Z,100.00
2022-09-23T21:52:02.012Z,100.00
2022-09-23T21:54:32.222Z,100.00
2022-09-23T21:57:01.473Z,100.00
2022-09-23T21:59:30.006Z,100.00
2022-09-23T22:01:58.509Z,100.00
2022-09-23T22:04:27.141Z,100.00
2022-09-23T22:06:55.792Z,100.00
2022-09-23T22:09:24.382Z,100.00
2022-09-23T22:12:12.698Z,100.00
2022-09-23T22:14:42.086Z,100.00
2022-09-23T22:17:13.244Z,100.00
2022-09-23T22:19:46.641Z,100.00
2022-09-23T22:22:18.379Z,100.00
2022-09-23T22:24:50.112Z,100.00
2022-09-23T22:27:21.586Z,100.00
2022-09-23T22:30:08.185Z,100.00
2022-09-23T22:32:42.673Z,100.00
2022-09-23T22:35:18.870Z,100.00
2022-09-23T22:37:48.461Z,100.00
2022-09-23T22:40:17.815Z,100.00
2022-09-23T22:42:46.850Z,100.00
2022-09-23T22:45:15.527Z,100.00
2022-09-23T22:47:46.188Z,100.00
2022-09-23T22:50:15.706Z,100.00
2022-09-23T22:52:44.729Z,100.00
2022-09-23T22:55:14.138Z,100.00
2022-09-23T22:57:42.591Z,100.00
2022-09-23T23:00:12.439Z,100.00
2022-09-23T23:02:41.349Z,100.00
2022-09-23T23:05:10.128Z,100.00
2022-09-23T23:07:38.619Z,100.00
2022-09-23T23:10:08.309Z,100.00
2022-09-23T23:12:36.805Z,100.00
2022-09-23T23:15:05.578Z,100.00
2022-09-23T23:17:34.170Z,100.00
2022-09-23T23:20:03.117Z,100.00
2022-09-23T23:22:31.587Z,100.00
2022-09-23T23:25:00.128Z,100.00
2022-09-23T23:27:28.702Z,100.00
2022-09-23T23:29:57.221Z,100.00
2022-09-23T23:32:25.792Z,100.00
2022-09-23T23:34:54.354Z,100.00
2022-09-23T23:37:22.870Z,100.00
2022-09-23T23:39:51.446Z,100.00
2022-09-23T23:42:19.999Z,100.00
2022-09-23T23:44:48.519Z,100.00
2022-09-23T23:47:17.076Z,100.00
2022-09-23T23:49:45.550Z,100.00
2022-09-23T23:52:14.049Z,100.00
2022-09-23T23:54:42.576Z,100.00
2022-09-23T23:57:11.121Z,100.00
2022-09-23T23:59:39.960Z,100.00
